Time;durP1;ratioP1;P1;durP2;ratioP2;P2;SDS_P1;SDS_P2;PMS_P1;PMS_P2;Temp;Humidity;BMP_temperature;BMP_pressure;BME280_temperature;BME280_humidity;BME280_pressure;Samples;Min_cycle;Max_cycle;Signal;HPM_P1;HPM_P2
2021/04/23 00:00:53;;;;;;;18.30;9.60;;;5.40;78.80;;;;;;5069387;28;20035;-78
2021/04/23 00:03:24;;;;;;;22.20;10.15;;;5.30;78.80;;;;;;5052554;28;20154;-76
2021/04/23 00:05:54;;;;;;;19.27;9.68;;;5.20;79.00;;;;;;5048160;28;20044;-78
2021/04/23 00:08:21;;;;;;;20.02;10.10;;;5.20;79.40;;;;;;5040808;28;20482;-79
2021/04/23 00:10:48;;;;;;;21.55;10.63;;;5.10;79.60;;;;;;5061995;28;20035;-78
2021/04/23 00:13:14;;;;;;;16.70;9.10;;;5.10;80.00;;;;;;5051005;28;20052;-77
2021/04/23 00:15:41;;;;;;;19.23;9.63;;;5.00;80.20;;;;;;5049256;28;20025;-76
2021/04/23 00:18:07;;;;;;;17.15;10.20;;;5.00;80.40;;;;;;5064843;28;20048;-80
2021/04/23 00:20:32;;;;;;;22.92;11.20;;;5.00;80.30;;;;;;5063459;28;20127;-77
2021/04/23 00:23:02;;;;;;;16.98;9.43;;;5.00;80.20;;;;;;5067762;28;20056;-77
2021/04/23 00:25:28;;;;;;;20.65;9.98;;;5.00;80.10;;;;;;5050269;28;20044;-78
2021/04/23 00:27:56;;;;;;;22.35;10.82;;;5.00;80.30;;;;;;5063949;28;20036;-78
2021/04/23 00:30:35;;;;;;;22.05;10.10;;;5.00;80.30;;;;;;5050806;28;20546;-77
2021/04/23 00:33:01;;;;;;;21.08;9.82;;;4.90;80.40;;;;;;5064230;28;20525;-77
2021/04/23 00:35:31;;;;;;;20.13;9.15;;;4.90;80.30;;;;;;5068835;28;20055;-77
2021/04/23 00:37:58;;;;;;;18.60;9.80;;;4.80;80.60;;;;;;5066063;28;20123;-77
2021/04/23 00:40:34;;;;;;;20.40;8.90;;;4.80;80.70;;;;;;5068005;28;20023;-78
2021/04/23 00:43:00;;;;;;;18.30;9.77;;;4.80;80.70;;;;;;5065901;28;20045;-78
2021/04/23 00:45:28;;;;;;;17.92;10.02;;;4.80;80.70;;;;;;5065862;28;20066;-77
2021/04/23 00:47:58;;;;;;;19.77;9.38;;;4.80;80.80;;;;;;5067076;28;20707;-78
2021/04/23 00:50:32;;;;;;;18.15;9.88;;;4.70;81.00;;;;;;5072805;28;20028;-77
2021/04/23 00:52:59;;;;;;;21.05;10.38;;;4.80;81.00;;;;;;5070539;28;20039;-78
2021/04/23 00:55:25;;;;;;;21.90;10.52;;;4.80;80.90;;;;;;5066613;28;20067;-78
2021/04/23 00:57:51;;;;;;;19.30;8.63;;;4.70;81.10;;;;;;5065255;28;20029;-77
2021/04/23 01:00:17;;;;;;;18.50;8.93;;;4.60;81.20;;;;;;5059950;28;20025;-77
2021/04/23 01:02:43;;;;;;;19.45;8.98;;;4.60;81.40;;;;;;5070130;28;20528;-77
2021/04/23 01:05:11;;;;;;;19.88;9.50;;;4.60;81.40;;;;;;5068745;28;20107;-76
2021/04/23 01:07:46;;;;;;;18.75;8.55;;;4.60;81.30;;;;;;5065945;28;20051;-78
2021/04/23 01:10:13;;;;;;;18.48;9.35;;;4.60;81.20;;;;;;5068747;28;20143;-78
2021/04/23 01:12:40;;;;;;;19.83;9.20;;;4.60;81.30;;;;;;5066334;28;20376;-78
2021/04/23 01:15:07;;;;;;;20.90;9.57;;;4.60;81.30;;;;;;5057944;28;20524;-78
2021/04/23 01:17:32;;;;;;;15.70;8.40;;;4.60;81.30;;;;;;5051216;28;20071;-77
2021/04/23 01:19:58;;;;;;;21.20;9.13;;;4.60;81.30;;;;;;5073254;28;20061;-77
2021/04/23 01:22:24;;;;;;;19.27;9.40;;;4.60;81.30;;;;;;5044650;28;20123;-77
2021/04/23 01:24:49;;;;;;;23.48;9.52;;;4.60;81.40;;;;;;5068576;28;20375;-76
2021/04/23 01:27:15;;;;;;;17.55;9.70;;;4.60;81.50;;;;;;5065378;28;20090;-77
2021/04/23 01:29:41;;;;;;;23.98;10.55;;;4.60;81.50;;;;;;5065575;28;20078;-77
2021/04/23 01:32:06;;;;;;;18.35;9.05;;;4.60;81.50;;;;;;5061739;28;20107;-77
2021/04/23 01:34:36;;;;;;;19.08;10.45;;;4.50;81.70;;;;;;5062929;28;20039;-77
2021/04/23 01:37:05;;;;;;;19.17;10.00;;;4.50;81.80;;;;;;5067136;28;20032;-77
2021/04/23 01:39:33;;;;;;;20.48;9.45;;;4.50;81.60;;;;;;5064973;28;20086;-78
2021/04/23 01:41:59;;;;;;;15.75;9.02;;;4.40;81.80;;;;;;5061090;28;20443;-76
2021/04/23 01:44:26;;;;;;;22.90;9.65;;;4.40;81.80;;;;;;5060065;28;20733;-79
2021/04/23 01:46:52;;;;;;;17.02;10.57;;;4.40;81.90;;;;;;5066455;28;20024;-80
2021/04/23 01:49:21;;;;;;;21.67;9.88;;;4.40;82.20;;;;;;5066791;28;20024;-79
2021/04/23 01:51:53;;;;;;;18.60;10.98;;;4.30;82.30;;;;;;5061481;28;20036;-76
2021/04/23 01:54:20;;;;;;;23.08;10.95;;;4.30;82.40;;;;;;5070346;28;20094;-76
2021/04/23 01:56:46;;;;;;;23.73;10.82;;;4.20;82.60;;;;;;5068067;28;20031;-77
2021/04/23 01:59:13;;;;;;;21.95;12.00;;;4.20;82.70;;;;;;5063906;28;20049;-76
2021/04/23 02:01:39;;;;;;;23.95;11.30;;;4.20;82.80;;;;;;5046420;28;20041;-79
2021/04/23 02:04:07;;;;;;;20.90;10.90;;;4.20;82.70;;;;;;5062362;28;20040;-76
2021/04/23 02:06:33;;;;;;;21.27;10.68;;;4.10;82.70;;;;;;5063724;28;20032;-76
2021/04/23 02:08:59;;;;;;;22.70;10.88;;;4.10;82.80;;;;;;5067951;28;20064;-79
2021/04/23 02:11:26;;;;;;;19.00;10.15;;;4.10;82.90;;;;;;5065805;28;20036;-77
2021/04/23 02:13:52;;;;;;;19.40;10.88;;;4.10;82.80;;;;;;5058333;28;20037;-76
2021/04/23 02:16:19;;;;;;;22.77;11.23;;;4.10;82.70;;;;;;5043506;28;20029;-78
2021/04/23 02:18:46;;;;;;;18.75;11.40;;;4.00;82.80;;;;;;5043361;28;20269;-76
2021/04/23 02:21:14;;;;;;;19.92;11.70;;;4.00;82.80;;;;;;5045974;28;20474;-77
2021/04/23 02:23:46;;;;;;;21.25;10.57;;;4.00;82.80;;;;;;5044636;28;20048;-81
2021/04/23 02:26:12;;;;;;;21.73;11.55;;;4.00;82.90;;;;;;5043055;28;20083;-77
2021/04/23 02:28:38;;;;;;;24.55;11.93;;;3.90;83.40;;;;;;5047044;28;20064;-79
2021/04/23 02:31:16;;;;;;;22.00;12.23;;;3.80;83.80;;;;;;5046504;28;20040;-77
2021/04/23 02:33:45;;;;;;;21.23;11.75;;;3.80;84.00;;;;;;5045576;28;20033;-78
2021/04/23 02:36:11;;;;;;;21.00;11.90;;;3.80;84.10;;;;;;5038369;28;20025;-76
2021/04/23 02:38:37;;;;;;;25.05;12.18;;;3.80;84.10;;;;;;5042545;28;20476;-78
2021/04/23 02:41:04;;;;;;;21.25;11.25;;;3.70;84.20;;;;;;5045005;28;20128;-78
2021/04/23 02:43:33;;;;;;;24.08;11.35;;;3.70;84.10;;;;;;5043635;28;20041;-76
2021/04/23 02:46:01;;;;;;;25.25;11.38;;;3.70;84.10;;;;;;5040938;28;20033;-79
2021/04/23 02:48:30;;;;;;;21.20;11.43;;;3.70;84.10;;;;;;5039966;28;22342;-76
2021/04/23 02:51:08;;;;;;;22.80;11.45;;;3.70;84.20;;;;;;5044386;28;20021;-80
2021/04/23 02:53:34;;;;;;;21.58;11.68;;;3.60;84.20;;;;;;5043414;28;20116;-78
2021/04/23 02:56:00;;;;;;;29.13;12.52;;;3.60;84.30;;;;;;5045139;28;20113;-78
2021/04/23 02:58:26;;;;;;;21.38;11.57;;;3.60;84.40;;;;;;5043698;28;20025;-79
2021/04/23 03:00:55;;;;;;;25.13;13.48;;;3.60;84.40;;;;;;5044579;28;20503;-77
2021/04/23 03:03:23;;;;;;;24.73;13.85;;;3.60;84.40;;;;;;5043027;28;20383;-77
2021/04/23 03:05:50;;;;;;;21.85;12.57;;;3.60;84.40;;;;;;5044005;28;20381;-77
2021/04/23 03:08:17;;;;;;;20.85;12.32;;;3.60;84.50;;;;;;5044277;28;20055;-76
2021/04/23 03:10:52;;;;;;;26.02;12.80;;;3.60;84.60;;;;;;5043925;28;20472;-77
2021/04/23 03:13:21;;;;;;;24.48;12.55;;;3.60;84.50;;;;;;5043057;28;20384;-76
2021/04/23 03:15:49;;;;;;;25.13;13.05;;;3.60;84.50;;;;;;5041434;28;20029;-77
2021/04/23 03:18:17;;;;;;;26.35;13.57;;;3.60;84.60;;;;;;5045288;28;20032;-77
2021/04/23 03:20:44;;;;;;;27.13;13.35;;;3.50;84.70;;;;;;5042111;28;20025;-78
2021/04/23 03:23:10;;;;;;;27.10;13.48;;;3.50;84.80;;;;;;5044696;28;20083;-78
2021/04/23 03:25:38;;;;;;;25.52;13.38;;;3.50;84.80;;;;;;5040705;28;20484;-77
2021/04/23 03:28:04;;;;;;;29.83;14.10;;;3.40;85.00;;;;;;5039735;28;20070;-77
2021/04/23 03:30:34;;;;;;;21.38;13.02;;;3.40;85.10;;;;;;5046154;28;20048;-77
2021/04/23 03:33:00;;;;;;;25.60;14.68;;;3.30;85.20;;;;;;5042987;28;20103;-76
2021/04/23 03:35:27;;;;;;;22.98;13.25;;;3.30;85.40;;;;;;5041367;28;20414;-78
2021/04/23 03:37:53;;;;;;;30.92;14.82;;;3.30;85.50;;;;;;5044962;28;20041;-76
2021/04/23 03:40:22;;;;;;;29.05;15.25;;;3.10;85.80;;;;;;5043630;28;20029;-77
2021/04/23 03:42:47;;;;;;;26.52;14.05;;;3.10;86.00;;;;;;5044499;28;20090;-80
2021/04/23 03:45:15;;;;;;;27.95;14.57;;;3.10;86.20;;;;;;5039503;28;20029;-77
2021/04/23 03:47:41;;;;;;;23.02;13.98;;;3.10;86.00;;;;;;5044223;28;20041;-77
2021/04/23 03:50:10;;;;;;;24.88;13.70;;;3.20;85.80;;;;;;5045615;28;20041;-77
2021/04/23 03:52:36;;;;;;;24.73;13.48;;;3.20;85.70;;;;;;5045824;28;20028;-77
2021/04/23 03:55:05;;;;;;;24.15;13.32;;;3.10;85.70;;;;;;5045996;28;20167;-77
2021/04/23 03:57:31;;;;;;;24.67;12.93;;;3.10;85.80;;;;;;5044076;28;20033;-77
2021/04/23 03:59:57;;;;;;;25.55;14.00;;;3.20;85.50;;;;;;5044480;28;20032;-78
2021/04/23 04:02:22;;;;;;;24.70;13.50;;;3.20;85.40;;;;;;5047489;28;20041;-77
2021/04/23 04:04:48;;;;;;;26.20;13.63;;;3.10;85.30;;;;;;5048919;28;20044;-78
2021/04/23 04:07:14;;;;;;;22.75;14.02;;;3.10;85.40;;;;;;5047141;28;20048;-77
2021/04/23 04:09:39;;;;;;;26.35;13.60;;;3.10;85.40;;;;;;5042545;28;20472;-76
2021/04/23 04:12:05;;;;;;;25.17;13.85;;;3.10;85.40;;;;;;5045697;28;20075;-78
2021/04/23 04:14:31;;;;;;;22.42;13.23;;;3.10;85.40;;;;;;5044551;28;20163;-78
2021/04/23 04:16:57;;;;;;;23.25;13.70;;;3.10;85.40;;;;;;5060998;28;20123;-79
2021/04/23 04:19:22;;;;;;;21.83;12.40;;;3.10;85.50;;;;;;5063626;28;20064;-76
2021/04/23 04:21:48;;;;;;;23.10;13.10;;;3.10;85.40;;;;;;5061157;28;20110;-82
2021/04/23 04:24:14;;;;;;;24.67;13.00;;;3.00;85.20;;;;;;5067385;28;20625;-76
2021/04/23 04:26:39;;;;;;;22.10;12.57;;;3.00;85.30;;;;;;5065939;28;20487;-77
2021/04/23 04:29:05;;;;;;;21.02;11.98;;;3.00;85.00;;;;;;5065723;28;20123;-79
2021/04/23 04:31:31;;;;;;;23.20;12.50;;;3.00;84.80;;;;;;5058488;28;20069;-77
2021/04/23 04:33:57;;;;;;;19.40;11.63;;;3.00;84.60;;;;;;5064907;28;20028;-78
2021/04/23 04:36:23;;;;;;;18.45;11.90;;;3.00;84.40;;;;;;5065643;28;20387;-76
2021/04/23 04:38:49;;;;;;;22.10;11.98;;;2.90;84.00;;;;;;5066290;28;20036;-78
2021/04/23 04:41:15;;;;;;;20.25;12.05;;;2.90;83.20;;;;;;5062480;28;20044;-77
2021/04/23 04:43:41;;;;;;;21.45;12.40;;;2.80;83.00;;;;;;5042952;28;20052;-78
2021/04/23 04:46:07;;;;;;;22.20;12.07;;;2.80;83.00;;;;;;5053212;28;20104;-76
2021/04/23 04:48:34;;;;;;;20.75;12.60;;;2.80;82.80;;;;;;5054587;28;20036;-77
2021/04/23 04:51:00;;;;;;;22.88;12.38;;;2.80;82.80;;;;;;5043570;28;20037;-77
2021/04/23 04:53:27;;;;;;;20.20;11.80;;;2.90;82.60;;;;;;5047425;28;20075;-76
2021/04/23 04:55:55;;;;;;;21.88;11.80;;;2.80;82.60;;;;;;5045326;28;20036;-76
2021/04/23 04:58:25;;;;;;;20.42;12.25;;;2.90;82.60;;;;;;5038907;28;20149;-76
2021/04/23 05:00:51;;;;;;;19.40;11.88;;;2.90;82.50;;;;;;5043324;28;20120;-77
2021/04/23 05:03:17;;;;;;;21.58;12.02;;;2.90;82.30;;;;;;5045465;28;20060;-77
2021/04/23 05:05:44;;;;;;;27.55;13.75;;;2.90;82.00;;;;;;5041093;28;20049;-76
2021/04/23 05:08:10;;;;;;;22.60;13.23;;;2.90;81.90;;;;;;5039340;28;20100;-78
2021/04/23 05:10:37;;;;;;;23.27;12.65;;;3.00;82.00;;;;;;5046328;28;20044;-78
2021/04/23 05:13:03;;;;;;;23.67;12.35;;;3.00;82.20;;;;;;5039735;28;20483;-76
2021/04/23 05:15:28;;;;;;;24.58;13.20;;;3.10;82.60;;;;;;5044647;28;20103;-77
2021/04/23 05:17:54;;;;;;;28.40;13.85;;;3.10;82.70;;;;;;5042534;28;20045;-76
2021/04/23 05:20:20;;;;;;;28.80;13.90;;;3.10;83.30;;;;;;5044637;28;20041;-77
2021/04/23 05:22:46;;;;;;;24.85;14.00;;;3.20;83.60;;;;;;5042978;28;20029;-77
2021/04/23 05:25:16;;;;;;;31.80;14.90;;;3.20;83.90;;;;;;5040729;28;20036;-77
2021/04/23 05:27:42;;;;;;;25.65;14.38;;;3.20;84.00;;;;;;5044097;28;20043;-73
2021/04/23 05:30:10;;;;;;;24.13;13.95;;;3.20;84.30;;;;;;5043579;28;20116;-72
2021/04/23 05:32:37;;;;;;;23.02;13.95;;;3.30;84.50;;;;;;5043080;28;20029;-71
2021/04/23 05:35:05;;;;;;;26.25;13.35;;;3.40;84.50;;;;;;5041321;28;20040;-72
2021/04/23 05:37:30;;;;;;;26.25;14.20;;;3.50;84.40;;;;;;5042077;28;20025;-71
2021/04/23 05:39:56;;;;;;;24.05;14.27;;;3.60;84.30;;;;;;5040801;28;20048;-70
2021/04/23 05:42:22;;;;;;;25.75;13.45;;;3.60;84.00;;;;;;5044283;28;20067;-73
2021/04/23 05:44:48;;;;;;;22.55;13.20;;;3.70;83.70;;;;;;5039784;28;20070;-71
2021/04/23 05:47:14;;;;;;;28.15;14.43;;;3.80;83.60;;;;;;5043022;28;20087;-71
2021/04/23 05:49:40;;;;;;;28.95;14.32;;;3.90;83.20;;;;;;5043083;28;20498;-71
2021/04/23 05:52:07;;;;;;;29.38;14.60;;;3.90;82.80;;;;;;5026531;28;20587;-70
2021/04/23 05:54:33;;;;;;;25.15;14.43;;;3.90;83.00;;;;;;5039647;28;20126;-72
2021/04/23 05:57:00;;;;;;;26.73;13.52;;;4.10;83.00;;;;;;5044783;28;20171;-70
2021/04/23 05:59:26;;;;;;;23.00;13.55;;;4.10;82.70;;;;;;5038864;28;20560;-70
2021/04/23 06:01:51;;;;;;;24.85;13.02;;;4.10;82.70;;;;;;5034046;28;20088;-72
2021/04/23 06:04:17;;;;;;;31.23;14.80;;;4.20;82.70;;;;;;5038257;28;20108;-69
2021/04/23 06:06:43;;;;;;;25.40;13.50;;;4.40;82.60;;;;;;5040352;28;20404;-70
2021/04/23 06:09:08;;;;;;;28.02;14.30;;;4.40;82.60;;;;;;5034232;28;20093;-69
2021/04/23 06:11:35;;;;;;;23.67;12.77;;;4.60;82.30;;;;;;5036831;28;20453;-70
2021/04/23 06:14:02;;;;;;;23.60;13.40;;;4.60;81.90;;;;;;5035103;28;20539;-70
2021/04/23 06:16:27;;;;;;;24.80;13.57;;;4.70;81.90;;;;;;5037348;28;20033;-70
2021/04/23 06:18:53;;;;;;;25.35;13.60;;;4.90;81.60;;;;;;5035002;28;20106;-74
2021/04/23 06:21:19;;;;;;;27.70;13.63;;;5.00;81.40;;;;;;5037890;28;20024;-71
2021/04/23 06:23:45;;;;;;;30.15;14.95;;;5.10;81.20;;;;;;5038033;28;20052;-72
2021/04/23 06:26:11;;;;;;;25.80;12.55;;;5.30;80.60;;;;;;5036714;28;20455;-71
2021/04/23 06:28:37;;;;;;;24.60;11.65;;;5.50;80.20;;;;;;5037635;28;20052;-73
2021/04/23 06:31:04;;;;;;;22.55;11.25;;;5.60;79.90;;;;;;5035660;28;20363;-71
2021/04/23 06:33:35;;;;;;;26.58;12.25;;;5.80;79.60;;;;;;5033689;28;20598;-73
2021/04/23 06:36:02;;;;;;;22.58;10.85;;;5.90;78.90;;;;;;5036295;28;20044;-71
2021/04/23 06:38:28;;;;;;;21.15;10.98;;;6.00;77.60;;;;;;5035920;28;20037;-71
2021/04/23 06:40:53;;;;;;;22.00;11.45;;;6.10;78.20;;;;;;5038073;28;20041;-70
2021/04/23 06:43:19;;;;;;;26.08;12.00;;;6.20;77.80;;;;;;5047256;28;20400;-73
2021/04/23 06:45:45;;;;;;;24.17;10.70;;;6.40;77.50;;;;;;5042462;28;20384;-70
2021/04/23 06:48:12;;;;;;;21.77;11.27;;;6.60;76.20;;;;;;5043230;28;20037;-71
2021/04/23 06:50:38;;;;;;;23.27;11.25;;;6.70;76.00;;;;;;5046682;28;20452;-71
2021/04/23 06:53:04;;;;;;;18.70;9.85;;;6.90;75.00;;;;;;5054188;28;20047;-70
2021/04/23 06:55:30;;;;;;;19.98;9.50;;;7.10;75.00;;;;;;5056040;28;20036;-70
2021/04/23 06:57:56;;;;;;;21.27;10.63;;;7.10;73.60;;;;;;5053618;28;20090;-69
2021/04/23 07:00:26;;;;;;;19.55;9.93;;;7.20;72.80;;;;;;5051722;28;20400;-68
2021/04/23 07:02:52;;;;;;;29.00;9.77;;;7.40;73.20;;;;;;5036472;28;20052;-68
2021/04/23 07:05:18;;;;;;;19.17;9.68;;;7.60;72.30;;;;;;5038994;28;20183;-69
2021/04/23 07:07:44;;;;;;;18.70;10.23;;;7.60;71.80;;;;;;5037096;28;20036;-69
2021/04/23 07:10:12;;;;;;;19.42;8.90;;;7.80;72.00;;;;;;5036490;28;20037;-69
2021/04/23 07:12:39;;;;;;;21.77;8.65;;;7.90;71.00;;;;;;5033549;28;20063;-70
2021/04/23 07:15:06;;;;;;;20.40;9.15;;;7.90;70.50;;;;;;5034546;28;20029;-70
2021/04/23 07:17:32;;;;;;;20.52;8.88;;;8.10;70.70;;;;;;5032801;28;20029;-71
2021/04/23 07:19:57;;;;;;;22.45;9.85;;;8.10;70.10;;;;;;5035586;28;20033;-69
2021/04/23 07:22:23;;;;;;;20.65;9.35;;;8.30;70.20;;;;;;5033558;28;20037;-69
2021/04/23 07:24:49;;;;;;;16.52;9.10;;;8.50;69.30;;;;;;5035195;28;20037;-69
2021/04/23 07:27:14;;;;;;;18.65;8.65;;;8.50;67.90;;;;;;5042270;28;20091;-68
2021/04/23 07:29:40;;;;;;;22.20;9.57;;;8.60;68.30;;;;;;5036519;28;20110;-70
2021/04/23 07:32:06;;;;;;;15.60;8.88;;;8.90;68.70;;;;;;5040457;28;21885;-70
2021/04/23 07:34:32;;;;;;;18.92;8.50;;;9.10;67.50;;;;;;5046044;28;20048;-69
2021/04/23 07:36:58;;;;;;;16.20;8.35;;;9.30;66.80;;;;;;5045872;28;20106;-70
2021/04/23 07:39:26;;;;;;;15.57;8.15;;;9.30;65.50;;;;;;5055815;28;20056;-70
2021/04/23 07:41:53;;;;;;;15.35;7.40;;;9.20;66.20;;;;;;5063269;28;20036;-71
2021/04/23 07:44:20;;;;;;;16.67;8.18;;;9.50;65.20;;;;;;5065190;28;20043;-72
2021/04/23 07:46:46;;;;;;;18.00;8.52;;;9.60;65.20;;;;;;5064449;28;20037;-69
2021/04/23 07:49:11;;;;;;;18.83;8.00;;;9.60;64.10;;;;;;5060770;28;20036;-70
2021/04/23 07:51:37;;;;;;;21.35;7.80;;;9.90;64.00;;;;;;5061389;28;20035;-70
2021/04/23 07:54:03;;;;;;;16.33;8.82;;;10.00;62.70;;;;;;5066187;28;20029;-72
2021/04/23 07:56:29;;;;;;;17.40;7.45;;;10.30;62.20;;;;;;5062899;28;20082;-69
2021/04/23 07:58:55;;;;;;;15.30;7.57;;;10.50;62.00;;;;;;5062090;28;20478;-71
2021/04/23 08:01:20;;;;;;;17.92;7.30;;;10.70;61.40;;;;;;5059586;28;20043;-70
2021/04/23 08:03:46;;;;;;;14.65;6.60;;;10.70;60.70;;;;;;5063056;28;20044;-69
2021/04/23 08:06:12;;;;;;;14.05;6.82;;;10.90;59.50;;;;;;5063512;28;20464;-69
2021/04/23 08:08:37;;;;;;;15.20;7.50;;;11.00;58.50;;;;;;5059640;28;20078;-71
2021/04/23 08:11:03;;;;;;;16.55;7.18;;;11.10;58.00;;;;;;5061123;28;20029;-70
2021/04/23 08:13:29;;;;;;;15.15;6.63;;;11.10;58.40;;;;;;5057698;28;20094;-70
2021/04/23 08:15:54;;;;;;;13.60;6.68;;;11.00;57.20;;;;;;5065238;28;20044;-71
2021/04/23 08:18:20;;;;;;;15.23;7.03;;;11.20;57.00;;;;;;5055360;28;20036;-69
2021/04/23 08:20:47;;;;;;;17.08;7.22;;;11.20;55.50;;;;;;5051744;28;20033;-70
2021/04/23 08:23:13;;;;;;;13.88;6.18;;;11.10;55.80;;;;;;5048879;28;20387;-69
2021/04/23 08:25:39;;;;;;;16.60;6.43;;;11.20;56.60;;;;;;5064187;28;20033;-69
2021/04/23 08:28:04;;;;;;;13.68;6.50;;;11.20;55.60;;;;;;5047242;28;20099;-70
2021/04/23 08:30:30;;;;;;;13.68;6.05;;;11.20;55.80;;;;;;5046398;28;20053;-70
2021/04/23 08:32:57;;;;;;;15.15;6.38;;;11.30;55.40;;;;;;5048750;28;20135;-70
2021/04/23 08:35:24;;;;;;;16.30;6.43;;;11.60;54.00;;;;;;5067456;28;20033;-69
2021/04/23 08:37:49;;;;;;;15.27;7.00;;;11.70;54.00;;;;;;5063979;28;20056;-70
2021/04/23 08:40:17;;;;;;;13.85;6.35;;;11.90;53.60;;;;;;5065361;28;20436;-72
2021/04/23 08:42:43;;;;;;;16.65;7.03;;;11.60;53.10;;;;;;5062150;28;20059;-69
2021/04/23 08:45:14;;;;;;;14.93;6.53;;;11.50;52.80;;;;;;5038263;28;20397;-69
2021/04/23 08:47:41;;;;;;;13.93;6.15;;;11.70;53.40;;;;;;5047457;28;21211;-70
2021/04/23 08:50:10;;;;;;;13.68;6.57;;;11.90;51.60;;;;;;5053244;28;20029;-69
2021/04/23 08:52:37;;;;;;;14.82;7.00;;;12.00;51.70;;;;;;5048081;28;20043;-70
2021/04/23 08:55:04;;;;;;;15.57;6.35;;;12.00;51.10;;;;;;5068526;28;20498;-69
2021/04/23 08:57:29;;;;;;;12.70;5.78;;;12.00;51.60;;;;;;5067186;28;20468;-70
2021/04/23 08:59:55;;;;;;;16.08;6.40;;;12.10;50.40;;;;;;5068262;28;20036;-69
2021/04/23 09:02:21;;;;;;;19.10;6.97;;;12.30;50.30;;;;;;5065935;28;20037;-71
2021/04/23 09:04:47;;;;;;;14.98;6.10;;;12.40;50.70;;;;;;5064693;28;20167;-70
2021/04/23 09:07:12;;;;;;;18.05;7.30;;;12.60;50.50;;;;;;5065238;28;20110;-69
2021/04/23 09:09:41;;;;;;;17.63;6.88;;;12.70;49.70;;;;;;5063724;28;20087;-73
2021/04/23 09:12:16;;;;;;;19.75;6.70;;;12.80;49.20;;;;;;5067507;28;20036;-71
2021/04/23 09:14:43;;;;;;;14.80;6.32;;;13.00;49.20;;;;;;5065136;28;20024;-71
2021/04/23 09:17:09;;;;;;;15.07;6.40;;;13.20;48.60;;;;;;5065747;28;20032;-70
2021/04/23 09:19:36;;;;;;;15.40;6.10;;;13.40;48.50;;;;;;5065261;28;20494;-72
2021/04/23 09:22:04;;;;;;;11.95;5.70;;;13.30;47.90;;;;;;5060244;28;20047;-74
2021/04/23 09:24:31;;;;;;;13.23;5.07;;;13.30;48.60;;;;;;5065534;28;20403;-70
2021/04/23 09:27:00;;;;;;;13.30;5.53;;;13.40;46.60;;;;;;5063216;28;20487;-69
2021/04/23 09:29:28;;;;;;;14.05;5.40;;;13.30;46.30;;;;;;5062872;28;20506;-70
2021/04/23 09:31:55;;;;;;;11.23;5.45;;;12.60;46.60;;;;;;5061364;28;20460;-69
2021/04/23 09:34:22;;;;;;;14.82;6.13;;;12.70;47.90;;;;;;5062949;28;20182;-73
2021/04/23 09:36:48;;;;;;;12.85;5.20;;;12.70;48.10;;;;;;5054956;28;20052;-69
2021/04/23 09:39:25;;;;;;;13.18;5.75;;;13.10;47.30;;;;;;5061502;28;20045;-69
2021/04/23 09:42:02;;;;;;;13.45;5.80;;;13.50;46.60;;;;;;5061949;28;20063;-69
2021/04/23 09:44:33;;;;;;;14.27;5.80;;;13.30;45.00;;;;;;5059589;28;20535;-72
2021/04/23 09:47:20;;;;;;;11.68;5.15;;;12.50;45.80;;;;;;5063739;28;20189;-73
2021/04/23 09:49:57;;;;;;;15.02;6.32;;;12.50;46.40;;;;;;5063566;28;20523;-70
2021/04/23 09:52:25;;;;;;;14.40;5.78;;;12.60;45.40;;;;;;5066091;28;20064;-70
2021/04/23 09:54:53;;;;;;;15.57;5.07;;;12.60;46.40;;;;;;5049481;28;20136;-69
2021/04/23 09:57:33;;;;;;;11.70;5.57;;;12.30;46.10;;;;;;5045635;28;20033;-70
2021/04/23 10:00:00;;;;;;;15.40;5.57;;;12.30;48.40;;;;;;5038498;28;20564;-69
2021/04/23 10:02:30;;;;;;;12.90;5.80;;;13.10;45.90;;;;;;5047525;28;20093;-70
2021/04/23 10:04:57;;;;;;;12.80;5.53;;;13.60;45.80;;;;;;5063094;28;20040;-69
2021/04/23 10:07:28;;;;;;;14.05;6.22;;;14.20;44.00;;;;;;5061879;28;20048;-70
2021/04/23 10:09:57;;;;;;;12.48;5.50;;;13.70;42.90;;;;;;5061350;28;20051;-72
2021/04/23 10:12:41;;;;;;;16.58;6.53;;;14.20;43.90;;;;;;5075535;28;20447;-69
2021/04/23 10:15:27;;;;;;;14.93;6.22;;;14.50;42.80;;;;;;5052538;28;20488;-70
2021/04/23 10:17:56;;;;;;;13.05;5.78;;;13.60;43.30;;;;;;5056511;28;20044;-69
2021/04/23 10:20:28;;;;;;;12.63;6.13;;;13.90;43.50;;;;;;5053312;28;20473;-71
2021/04/23 10:22:55;;;;;;;14.10;5.88;;;13.70;43.20;;;;;;5040313;28;20396;-69
2021/04/23 10:25:22;;;;;;;11.52;5.55;;;13.70;44.40;;;;;;5052951;28;20124;-69
2021/04/23 10:27:49;;;;;;;11.73;5.95;;;14.20;43.60;;;;;;5046697;28;20423;-71
2021/04/23 10:30:20;;;;;;;12.20;6.15;;;14.60;42.20;;;;;;5040567;28;20052;-69
2021/04/23 10:32:48;;;;;;;11.23;5.82;;;14.80;41.60;;;;;;5043409;28;20068;-69
2021/04/23 10:35:14;;;;;;;11.48;5.35;;;15.20;41.50;;;;;;5046378;28;20037;-69
2021/04/23 10:37:42;;;;;;;12.77;5.97;;;15.60;41.10;;;;;;5059230;28;20040;-69
2021/04/23 10:40:08;;;;;;;13.90;5.20;;;15.00;39.40;;;;;;5043772;28;20545;-68
2021/04/23 10:42:51;;;;;;;12.98;5.80;;;14.10;40.10;;;;;;5054628;28;20437;-73
2021/04/23 10:45:35;;;;;;;12.43;5.38;;;14.10;41.80;;;;;;5063741;28;20496;-72
2021/04/23 10:48:04;;;;;;;13.43;5.82;;;14.30;40.10;;;;;;5063236;28;20059;-70
2021/04/23 10:50:41;;;;;;;13.13;5.63;;;14.30;40.20;;;;;;5059340;28;20032;-70
2021/04/23 10:53:12;;;;;;;13.63;5.93;;;14.70;39.90;;;;;;5055553;28;20033;-69
2021/04/23 10:55:48;;;;;;;12.10;5.60;;;14.90;40.50;;;;;;5062596;28;20033;-68
2021/04/23 10:58:22;;;;;;;10.40;5.07;;;15.10;38.50;;;;;;5058959;28;20427;-69
2021/04/23 11:00:49;;;;;;;11.63;5.35;;;15.20;39.70;;;;;;5037564;28;20434;-69
2021/04/23 11:03:34;;;;;;;10.60;5.00;;;15.40;38.80;;;;;;5041109;28;20052;-71
2021/04/23 11:06:05;;;;;;;13.48;4.95;;;15.80;39.00;;;;;;5065157;28;20483;-72
2021/04/23 11:08:34;;;;;;;11.68;5.55;;;16.10;39.30;;;;;;5063451;28;20110;-70
2021/04/23 11:13:33;;;;;;;17.63;6.30;;;15.60;35.60;;;;;;5049057;28;20320;-71
2021/04/23 11:16:20;;;;;;;14.57;5.22;;;14.60;38.60;;;;;;5040354;28;20033;-69
2021/04/23 11:18:47;;;;;;;13.10;6.10;;;14.60;39.40;;;;;;5055281;28;20052;-70
2021/04/23 11:24:22;;;;;;;14.68;5.55;;;15.30;37.80;;;;;;5063774;28;20052;-70
2021/04/23 11:26:54;;;;;;;13.23;5.22;;;14.80;38.30;;;;;;5063402;28;20036;-69
2021/04/23 11:29:30;;;;;;;12.55;5.47;;;15.30;38.20;;;;;;5066554;28;20055;-69
2021/04/23 11:32:21;;;;;;;14.30;5.35;;;15.40;39.20;;;;;;5064762;28;20079;-70
2021/04/23 11:34:55;;;;;;;12.48;5.65;;;16.00;37.60;;;;;;5042884;28;20476;-70
2021/04/23 11:37:31;;;;;;;20.27;6.57;;;16.30;37.00;;;;;;5044351;28;21001;-70
2021/04/23 11:40:20;;;;;;;12.80;6.13;;;15.60;37.00;;;;;;5042482;28;20036;-70
2021/04/23 11:42:49;;;;;;;16.67;6.47;;;15.20;38.20;;;;;;5040680;28;20041;-71
2021/04/23 11:45:17;;;;;;;12.85;5.55;;;15.30;38.90;;;;;;5042079;28;20481;-70
2021/04/23 11:47:47;;;;;;;12.90;5.90;;;15.40;37.50;;;;;;5040415;28;20066;-70
2021/04/23 11:50:24;;;;;;;13.45;5.35;;;15.50;37.30;;;;;;5037941;28;20113;-69
2021/04/23 11:52:52;;;;;;;11.15;6.05;;;15.60;37.50;;;;;;5042494;28;20055;-69
2021/04/23 11:55:19;;;;;;;12.93;5.60;;;16.00;37.50;;;;;;5042106;28;20025;-70
2021/04/23 11:57:47;;;;;;;12.23;5.65;;;16.30;37.20;;;;;;5040609;28;20447;-69
2021/04/23 12:00:20;;;;;;;10.68;5.40;;;16.10;35.70;;;;;;5037790;28;20121;-70
2021/04/23 12:02:49;;;;;;;11.23;4.82;;;15.70;37.40;;;;;;5038267;28;20041;-69
2021/04/23 12:05:41;;;;;;;12.70;5.10;;;16.10;36.30;;;;;;5038153;28;20029;-70
2021/04/23 12:08:08;;;;;;;10.38;4.78;;;16.40;34.90;;;;;;5043122;28;20369;-70
2021/04/23 12:10:37;;;;;;;12.02;4.93;;;16.60;34.40;;;;;;5032005;28;20071;-68
2021/04/23 12:13:09;;;;;;;9.95;4.60;;;16.60;34.50;;;;;;5030517;28;20060;-72
2021/04/23 12:15:37;;;;;;;11.80;4.82;;;16.60;36.40;;;;;;5036261;28;20041;-72
2021/04/23 12:18:04;;;;;;;12.60;5.13;;;16.70;34.30;;;;;;5032902;28;20424;-71
2021/04/23 12:20:37;;;;;;;13.65;5.65;;;16.60;34.40;;;;;;5040890;28;20036;-70
2021/04/23 12:23:04;;;;;;;12.60;5.22;;;16.50;35.20;;;;;;5044620;28;20045;-69
2021/04/23 12:25:39;;;;;;;9.60;5.32;;;16.10;35.00;;;;;;5041801;28;20041;-70
2021/04/23 12:28:25;;;;;;;13.32;6.05;;;16.60;36.70;;;;;;5048031;28;20048;-70
2021/04/23 12:31:06;;;;;;;10.23;5.07;;;15.70;36.80;;;;;;5040796;28;20489;-68
2021/04/23 12:33:51;;;;;;;13.35;6.00;;;15.90;35.70;;;;;;5044644;28;20037;-69
2021/04/23 12:36:26;;;;;;;13.90;6.05;;;16.10;35.10;;;;;;5047327;28;20041;-70
2021/04/23 12:38:58;;;;;;;12.55;5.75;;;16.30;35.40;;;;;;5040921;28;20055;-69
2021/04/23 12:41:35;;;;;;;15.60;6.22;;;16.20;35.10;;;;;;5042808;28;20052;-70
2021/04/23 12:44:04;;;;;;;14.35;5.22;;;15.90;35.60;;;;;;5048275;28;20052;-73
2021/04/23 12:46:33;;;;;;;13.30;5.60;;;15.50;36.10;;;;;;5038803;28;20429;-70
2021/04/23 12:49:27;;;;;;;11.35;5.93;;;15.70;36.60;;;;;;5043083;28;20045;-71